createdAt,value
2018-08-27T00:00:19.596Z,1005.16
2018-08-27T00:01:19.580Z,1005.17
2018-08-27T00:02:19.527Z,1005.16
2018-08-27T00:03:19.486Z,1005.08
2018-08-27T00:04:19.441Z,1005.08
2018-08-27T00:05:19.400Z,1005.14
2018-08-27T00:06:19.386Z,1005.12
2018-08-27T00:07:19.324Z,1005.10
2018-08-27T00:08:19.323Z,1005.14
2018-08-27T00:09:19.261Z,1005.11
2018-08-27T00:10:19.214Z,1005.09
2018-08-27T00:11:19.200Z,1005.06
2018-08-27T00:12:19.135Z,1005.00
2018-08-27T00:13:19.088Z,1005.00
2018-08-27T00:14:19.047Z,1005.09
2018-08-27T00:15:19.062Z,1005.08
2018-08-27T00:16:18.978Z,1005.13
2018-08-27T00:17:18.964Z,1005.11
2018-08-27T00:18:18.897Z,1005.12
2018-08-27T00:19:18.856Z,1005.18
2018-08-27T00:20:18.824Z,1005.21
2018-08-27T00:21:18.784Z,1005.16
2018-08-27T00:22:18.768Z,1005.21
2018-08-27T00:23:18.706Z,1005.16
2018-08-27T00:24:18.660Z,1005.18
2018-08-27T00:25:18.626Z,1005.15
2018-08-27T00:26:18.580Z,1005.15
2018-08-27T00:27:18.565Z,1005.15
2018-08-27T00:28:18.514Z,1005.17
2018-08-27T00:29:18.475Z,1005.15
2018-08-27T00:30:18.434Z,1005.13
2018-08-27T00:31:18.394Z,1005.13
2018-08-27T00:32:18.390Z,1005.11
2018-08-27T00:33:18.311Z,1005.15
2018-08-27T00:34:18.279Z,1005.16
2018-08-27T00:35:18.241Z,1005.13
2018-08-27T00:36:18.194Z,1005.13
2018-08-27T00:37:18.152Z,1005.10
2018-08-27T00:38:18.140Z,1005.13
2018-08-27T00:39:18.077Z,1005.16
2018-08-27T00:40:18.043Z,1005.11
2018-08-27T00:41:18.006Z,1005.08
2018-08-27T00:42:17.994Z,1005.09
2018-08-27T00:43:17.926Z,1005.07
2018-08-27T00:44:17.882Z,1005.04
2018-08-27T00:45:17.842Z,1005.06
2018-08-27T00:46:17.802Z,1005.02
2018-08-27T00:47:17.764Z,1005.03
2018-08-27T00:48:17.754Z,1005.04
2018-08-27T00:49:17.690Z,1004.91
2018-08-27T00:50:17.647Z,1004.99
2018-08-27T00:51:17.608Z,1004.95
2018-08-27T00:52:17.598Z,1004.94
2018-08-27T00:53:17.534Z,1004.91
2018-08-27T00:54:17.495Z,1004.88
2018-08-27T00:55:17.455Z,1004.95
2018-08-27T00:56:17.410Z,1004.87
2018-08-27T00:57:17.375Z,1004.84
2018-08-27T00:58:17.353Z,1004.87
2018-08-27T00:59:17.292Z,1004.86
2018-08-27T01:00:17.258Z,1004.81
2018-08-27T01:01:17.218Z,1004.88
2018-08-27T01:02:17.180Z,1004.84
2018-08-27T01:03:17.166Z,1004.82
2018-08-27T01:04:17.095Z,1004.82
2018-08-27T01:05:17.056Z,1004.80
2018-08-27T01:06:17.020Z,1004.73
2018-08-27T01:07:16.985Z,1004.77
2018-08-27T01:08:16.939Z,1004.73
2018-08-27T01:09:16.922Z,1004.70
2018-08-27T01:10:16.860Z,1004.72
2018-08-27T01:11:16.820Z,1004.68
2018-08-27T01:12:16.785Z,1004.69
2018-08-27T01:13:16.748Z,1004.67
2018-08-27T01:14:16.729Z,1004.66
2018-08-27T01:15:16.671Z,1004.65
2018-08-27T01:16:16.624Z,1004.60
2018-08-27T01:17:16.582Z,1004.65
2018-08-27T01:18:16.544Z,1004.67
2018-08-27T01:19:16.526Z,1004.60
2018-08-27T01:20:16.474Z,1004.54
2018-08-27T01:21:16.433Z,1004.55
2018-08-27T01:22:16.398Z,1004.48
2018-08-27T01:23:16.352Z,1004.54
2018-08-27T01:24:16.345Z,1004.43
2018-08-27T01:25:16.279Z,1004.40
2018-08-27T01:26:16.238Z,1004.37
2018-08-27T01:27:16.199Z,1004.46
2018-08-27T01:28:16.155Z,1004.44
2018-08-27T01:29:16.112Z,1004.49
2018-08-27T01:30:16.093Z,1004.45
2018-08-27T01:31:16.032Z,1004.40
2018-08-27T01:32:16.003Z,1004.35
2018-08-27T01:33:15.962Z,1004.40
2018-08-27T01:34:15.921Z,1004.46
2018-08-27T01:35:15.907Z,1004.41
2018-08-27T01:36:15.847Z,1004.37
2018-08-27T01:37:15.797Z,1004.39
2018-08-27T01:38:15.767Z,1004.38
2018-08-27T01:39:15.730Z,1004.44
2018-08-27T01:40:15.711Z,1004.44
2018-08-27T01:41:15.641Z,1004.40
2018-08-27T01:42:15.612Z,1004.43
2018-08-27T01:43:15.566Z,1004.51
2018-08-27T01:44:15.532Z,1004.44
2018-08-27T01:45:15.494Z,1004.49
2018-08-27T01:46:15.478Z,1004.45
2018-08-27T01:47:15.417Z,1004.43
2018-08-27T01:48:15.370Z,1004.45
2018-08-27T01:49:15.330Z,1004.43
2018-08-27T01:50:15.290Z,1004.48
2018-08-27T01:51:15.275Z,1004.41
2018-08-27T01:52:15.221Z,1004.41
2018-08-27T01:53:15.180Z,1004.45
2018-08-27T01:54:15.150Z,1004.38
2018-08-27T01:55:25.307Z,1004.39
2018-08-27T01:56:15.090Z,1004.35
2018-08-27T01:57:15.030Z,1004.39
2018-08-27T01:58:14.977Z,1004.32
2018-08-27T01:59:14.936Z,1004.33
2018-08-27T02:00:14.901Z,1004.31
2018-08-27T02:01:14.883Z,1004.32
2018-08-27T02:02:14.824Z,1004.22
2018-08-27T02:03:14.785Z,1004.21
2018-08-27T02:04:14.747Z,1004.21
2018-08-27T02:05:14.709Z,1004.20
2018-08-27T02:06:14.690Z,1004.16
2018-08-27T02:07:14.623Z,1004.16
2018-08-27T02:08:14.589Z,1004.11
2018-08-27T02:09:14.550Z,1004.22
2018-08-27T02:10:14.506Z,1004.11
2018-08-27T02:11:14.489Z,1004.12
2018-08-27T02:12:14.428Z,1004.09
2018-08-27T02:13:14.382Z,1004.12
2018-08-27T02:14:14.349Z,1004.12
2018-08-27T02:15:14.308Z,1004.12
2018-08-27T02:16:14.294Z,1004.07
2018-08-27T02:17:14.231Z,1004.12
2018-08-27T02:18:14.188Z,1004.16
2018-08-27T02:19:14.144Z,1004.08
2018-08-27T02:20:14.103Z,1004.13
2018-08-27T02:21:14.064Z,1004.08
2018-08-27T02:22:14.062Z,1004.05
2018-08-27T02:23:13.995Z,1004.06
2018-08-27T02:24:13.944Z,1004.09
2018-08-27T02:25:13.904Z,1004.08
2018-08-27T02:26:13.872Z,1003.99
2018-08-27T02:27:13.856Z,1004.01
2018-08-27T02:28:13.794Z,1004.05
2018-08-27T02:29:13.768Z,1003.99
2018-08-27T02:30:23.832Z,1003.99
2018-08-27T02:31:13.662Z,1003.91
2018-08-27T02:32:13.658Z,1003.99
2018-08-27T02:33:13.594Z,1003.96
2018-08-27T02:34:13.555Z,1004.00
2018-08-27T02:35:13.570Z,1003.98
2018-08-27T02:36:13.468Z,1003.92
2018-08-27T02:37:13.461Z,1004.06
2018-08-27T02:38:13.407Z,1003.95
2018-08-27T02:39:13.356Z,1003.96
2018-08-27T02:40:13.315Z,1003.93
2018-08-27T02:41:13.267Z,1003.93
2018-08-27T02:42:13.248Z,1003.98
2018-08-27T02:43:13.187Z,1003.93
2018-08-27T02:44:13.155Z,1003.92
2018-08-27T02:45:13.116Z,1003.97
2018-08-27T02:46:13.071Z,1003.97
2018-08-27T02:47:13.058Z,1003.91
2018-08-27T02:48:12.990Z,1003.91
2018-08-27T02:49:23.461Z,1003.91
2018-08-27T02:50:12.921Z,1003.90
2018-08-27T02:51:12.879Z,1003.90
2018-08-27T02:52:12.855Z,1003.89
2018-08-27T02:53:12.787Z,1003.87
2018-08-27T02:54:12.760Z,1003.89
2018-08-27T02:55:12.716Z,1003.88
2018-08-27T02:56:12.676Z,1003.89
2018-08-27T02:57:12.634Z,1003.91
2018-08-27T02:58:12.610Z,1003.88
2018-08-27T02:59:12.545Z,1003.88
2018-08-27T03:00:12.511Z,1003.83
2018-08-27T03:01:12.467Z,1003.88
2018-08-27T03:02:12.434Z,1003.88
2018-08-27T03:03:12.415Z,1003.86
2018-08-27T03:04:12.354Z,1003.81
2018-08-27T03:05:12.317Z,1003.84
2018-08-27T03:06:22.431Z,1003.77
2018-08-27T03:07:12.232Z,1003.76
2018-08-27T03:08:12.214Z,1003.80
2018-08-27T03:09:12.146Z,1003.78
2018-08-27T03:10:12.109Z,1003.75
2018-08-27T03:11:12.065Z,1003.76
2018-08-27T03:12:12.051Z,1003.70
2018-08-27T03:13:11.995Z,1003.75
2018-08-27T03:14:11.976Z,1003.69
2018-08-27T03:15:11.914Z,1003.73
2018-08-27T03:16:11.877Z,1003.75
2018-08-27T03:17:11.825Z,1003.70
2018-08-27T03:18:11.789Z,1003.70
2018-08-27T03:19:11.770Z,1003.73
2018-08-27T03:20:11.715Z,1003.69
2018-08-27T03:21:11.670Z,1003.71
2018-08-27T03:22:11.622Z,1003.69
2018-08-27T03:23:11.586Z,1003.68
2018-08-27T03:24:21.483Z,1003.72
2018-08-27T03:25:11.523Z,1003.67
2018-08-27T03:26:11.466Z,1003.70
2018-08-27T03:27:11.426Z,1003.67
2018-08-27T03:28:11.392Z,1003.69
2018-08-27T03:29:11.376Z,1003.68
2018-08-27T03:30:11.325Z,1003.69
2018-08-27T03:31:11.277Z,1003.76
2018-08-27T03:32:11.239Z,1003.63
2018-08-27T03:33:11.190Z,1003.69
2018-08-27T03:34:11.147Z,1003.68
2018-08-27T03:35:11.126Z,1003.64
2018-08-27T03:36:11.074Z,1003.66
2018-08-27T03:37:11.034Z,1003.63
2018-08-27T03:38:10.985Z,1003.58
2018-08-27T03:39:10.951Z,1003.66
2018-08-27T03:40:10.927Z,1003.60
2018-08-27T03:41:10.870Z,1003.62
2018-08-27T03:42:10.830Z,1003.64
2018-08-27T03:43:10.792Z,1003.66
2018-08-27T03:44:10.749Z,1003.65
2018-08-27T03:45:10.738Z,1003.64
2018-08-27T03:46:10.664Z,1003.66
2018-08-27T03:47:10.623Z,1003.68
2018-08-27T03:48:10.591Z,1003.69
2018-08-27T03:49:10.544Z,1003.68
2018-08-27T03:50:10.511Z,1003.70
2018-08-27T03:51:10.496Z,1003.68
2018-08-27T03:52:10.426Z,1003.53
2018-08-27T03:53:10.383Z,1003.61
2018-08-27T03:54:10.348Z,1003.60
2018-08-27T03:55:10.307Z,1003.55
2018-08-27T03:56:10.294Z,1003.69
2018-08-27T03:57:10.228Z,1003.54
2018-08-27T03:58:10.183Z,1003.62
2018-08-27T03:59:20.501Z,1003.60
2018-08-27T04:00:10.111Z,1003.55
2018-08-27T04:01:10.089Z,1003.60
2018-08-27T04:02:10.032Z,1003.59
2018-08-27T04:03:09.989Z,1003.55
2018-08-27T04:04:09.944Z,1003.58
2018-08-27T04:05:09.908Z,1003.53
2018-08-27T04:06:09.896Z,1003.50
2018-08-27T04:07:09.830Z,1003.48
2018-08-27T04:08:09.786Z,1003.54
2018-08-27T04:09:09.740Z,1003.52
2018-08-27T04:10:09.702Z,1003.56
2018-08-27T04:11:09.663Z,1003.60
2018-08-27T04:12:09.651Z,1003.55
2018-08-27T04:13:09.586Z,1003.56
2018-08-27T04:14:09.551Z,1003.55
2018-08-27T04:15:09.509Z,1003.61
2018-08-27T04:16:09.464Z,1003.60
2018-08-27T04:17:09.446Z,1003.61
2018-08-27T04:18:20.539Z,1003.64
2018-08-27T04:19:09.355Z,1003.64
2018-08-27T04:20:09.310Z,1003.56
2018-08-27T04:21:09.260Z,1003.65
2018-08-27T04:22:09.274Z,1003.65
2018-08-27T04:23:09.196Z,1003.62
2018-08-27T04:24:09.149Z,1003.60
2018-08-27T04:25:09.113Z,1003.67
2018-08-27T04:26:09.063Z,1003.65
2018-08-27T04:27:09.021Z,1003.64
2018-08-27T04:28:09.007Z,1003.59
2018-08-27T04:29:08.937Z,1003.59
2018-08-27T04:30:08.910Z,1003.67
2018-08-27T04:31:08.867Z,1003.62
2018-08-27T04:32:08.828Z,1003.67
2018-08-27T04:33:08.813Z,1003.68
2018-08-27T04:34:08.742Z,1003.66
2018-08-27T04:35:08.701Z,1003.69
2018-08-27T04:36:08.668Z,1003.68
2018-08-27T04:37:18.075Z,1003.69
2018-08-27T04:38:08.600Z,1003.70
2018-08-27T04:39:08.544Z,1003.69
2018-08-27T04:40:08.507Z,1003.62
2018-08-27T04:41:08.466Z,1003.60
2018-08-27T04:42:08.427Z,1003.65
2018-08-27T04:43:08.418Z,1003.57
2018-08-27T04:44:08.343Z,1003.60
2018-08-27T04:45:08.298Z,1003.58
2018-08-27T04:46:08.260Z,1003.65
2018-08-27T04:47:08.284Z,1003.60
2018-08-27T04:48:08.188Z,1003.60
2018-08-27T04:49:08.169Z,1003.59
2018-08-27T04:50:08.101Z,1003.63
2018-08-27T04:51:08.061Z,1003.64
2018-08-27T04:52:08.026Z,1003.69
2018-08-27T04:53:07.989Z,1003.70
2018-08-27T04:54:07.971Z,1003.67
2018-08-27T04:55:07.919Z,1003.63
2018-08-27T04:56:07.864Z,1003.68
2018-08-27T04:57:07.821Z,1003.67
2018-08-27T04:58:07.783Z,1003.69
2018-08-27T04:59:07.769Z,1003.69
2018-08-27T05:00:07.711Z,1003.67
2018-08-27T05:01:07.669Z,1003.70
2018-08-27T05:02:07.628Z,1003.77
2018-08-27T05:03:07.598Z,1003.77
2018-08-27T05:04:07.538Z,1003.80
2018-08-27T05:05:07.521Z,1003.85
2018-08-27T05:06:07.469Z,1003.82
2018-08-27T05:07:07.431Z,1003.79
2018-08-27T05:08:07.385Z,1003.79
2018-08-27T05:09:07.340Z,1003.82
2018-08-27T05:10:07.335Z,1003.83
2018-08-27T05:11:07.263Z,1003.84
2018-08-27T05:12:07.233Z,1003.83
2018-08-27T05:13:18.634Z,1003.84
2018-08-27T05:14:07.145Z,1003.80
2018-08-27T05:15:07.107Z,1003.83
2018-08-27T05:16:07.084Z,1003.83
2018-08-27T05:17:07.021Z,1003.85
2018-08-27T05:18:06.990Z,1003.82
2018-08-27T05:19:06.954Z,1003.80
2018-08-27T05:20:06.926Z,1003.79
2018-08-27T05:21:06.867Z,1003.80
2018-08-27T05:22:06.829Z,1003.84
2018-08-27T05:23:06.789Z,1003.82
2018-08-27T05:24:06.755Z,1003.78
2018-08-27T05:25:06.712Z,1003.78
2018-08-27T05:26:06.685Z,1003.80
2018-08-27T05:27:06.625Z,1003.84
2018-08-27T05:28:06.584Z,1003.83
2018-08-27T05:29:06.541Z,1003.85
2018-08-27T05:30:06.507Z,1003.83
2018-08-27T05:31:06.554Z,1003.84
2018-08-27T05:32:06.433Z,1003.85
2018-08-27T05:33:06.391Z,1003.92
2018-08-27T05:34:06.342Z,1003.88
2018-08-27T05:35:06.305Z,1003.88
2018-08-27T05:36:06.270Z,1003.89
2018-08-27T05:37:06.253Z,1003.90
2018-08-27T05:38:06.204Z,1003.91
2018-08-27T05:39:06.143Z,1003.97
2018-08-27T05:40:06.105Z,1003.95
2018-08-27T05:41:06.065Z,1004.02
2018-08-27T05:42:06.058Z,1003.99
2018-08-27T05:43:05.990Z,1003.99
2018-08-27T05:44:05.954Z,1004.00
2018-08-27T05:45:05.909Z,1003.97
2018-08-27T05:46:05.862Z,1003.99
2018-08-27T05:47:15.688Z,1004.01
2018-08-27T05:48:05.791Z,1004.02
2018-08-27T05:49:05.752Z,1004.03
2018-08-27T05:50:05.703Z,1003.97
2018-08-27T05:51:05.663Z,1003.94
2018-08-27T05:52:05.692Z,1003.99
2018-08-27T05:53:05.615Z,1004.01
2018-08-27T05:54:05.552Z,1004.01
2018-08-27T05:55:05.511Z,1004.02
2018-08-27T05:56:05.468Z,1004.01
2018-08-27T05:57:05.422Z,1004.08
2018-08-27T05:58:05.407Z,1004.08
2018-08-27T05:59:05.347Z,1004.08
2018-08-27T06:00:05.321Z,1004.09
2018-08-27T06:01:05.270Z,1004.13
2018-08-27T06:02:05.234Z,1004.11
2018-08-27T06:03:05.222Z,1004.14
2018-08-27T06:04:16.219Z,1004.13
2018-08-27T06:05:05.115Z,1004.05
2018-08-27T06:06:05.071Z,1004.08
2018-08-27T06:07:05.030Z,1004.14
2018-08-27T06:08:05.016Z,1004.14
2018-08-27T06:09:04.966Z,1004.16
2018-08-27T06:10:04.916Z,1004.22
2018-08-27T06:11:04.919Z,1004.16
2018-08-27T06:12:04.837Z,1004.15
2018-08-27T06:13:04.797Z,1004.13
2018-08-27T06:14:04.774Z,1004.18
2018-08-27T06:15:04.715Z,1004.10
2018-08-27T06:16:04.680Z,1004.12
2018-08-27T06:17:04.643Z,1004.16
2018-08-27T06:18:04.598Z,1004.15
2018-08-27T06:19:04.583Z,1004.14
2018-08-27T06:20:04.517Z,1004.16
2018-08-27T06:21:04.471Z,1004.16
2018-08-27T06:22:04.484Z,1004.14
2018-08-27T06:23:04.424Z,1004.16
2018-08-27T06:24:04.360Z,1004.21
2018-08-27T06:25:04.416Z,1004.24
2018-08-27T06:26:04.273Z,1004.21
2018-08-27T06:27:04.239Z,1004.26
2018-08-27T06:28:04.196Z,1004.24
2018-08-27T06:29:04.183Z,1004.30
2018-08-27T06:30:04.133Z,1004.32
2018-08-27T06:31:04.087Z,1004.37
2018-08-27T06:32:04.046Z,1004.37
2018-08-27T06:33:04.008Z,1004.40
2018-08-27T06:34:03.982Z,1004.38
2018-08-27T06:35:04.012Z,1004.38
2018-08-27T06:36:03.893Z,1004.39
2018-08-27T06:37:14.257Z,1004.43
2018-08-27T06:38:03.851Z,1004.43
2018-08-27T06:39:03.782Z,1004.39
2018-08-27T06:40:03.729Z,1004.39
2018-08-27T06:41:03.693Z,1004.40
2018-08-27T06:42:03.654Z,1004.45
2018-08-27T06:43:03.610Z,1004.45
2018-08-27T06:44:03.589Z,1004.47
2018-08-27T06:45:03.530Z,1004.42
2018-08-27T06:46:03.486Z,1004.44
2018-08-27T06:47:03.447Z,1004.44
2018-08-27T06:48:03.415Z,1004.43
2018-08-27T06:49:03.401Z,1004.44
2018-08-27T06:50:03.329Z,1004.44
2018-08-27T06:51:03.288Z,1004.44
2018-08-27T06:52:03.256Z,1004.47
2018-08-27T06:53:03.218Z,1004.44
2018-08-27T06:54:03.181Z,1004.40
2018-08-27T06:55:03.159Z,1004.38
2018-08-27T06:56:03.090Z,1004.39
2018-08-27T06:57:03.057Z,1004.42
2018-08-27T06:58:03.022Z,1004.42
2018-08-27T06:59:02.993Z,1004.42
2018-08-27T07:00:02.976Z,1004.43
2018-08-27T07:01:02.903Z,1004.45
2018-08-27T07:02:02.864Z,1004.43
2018-08-27T07:03:02.829Z,1004.42
2018-08-27T07:04:02.785Z,1004.46
2018-08-27T07:05:02.741Z,1004.43
2018-08-27T07:06:02.730Z,1004.45
2018-08-27T07:07:02.668Z,1004.48
2018-08-27T07:08:02.625Z,1004.44
2018-08-27T07:09:02.593Z,1004.47
2018-08-27T07:10:02.545Z,1004.43
2018-08-27T07:11:02.527Z,1004.46
2018-08-27T07:12:12.815Z,1004.46
2018-08-27T07:13:02.505Z,1004.50
2018-08-27T07:14:02.397Z,1004.46
2018-08-27T07:15:02.378Z,1004.47
2018-08-27T07:16:02.343Z,1004.48
2018-08-27T07:17:02.280Z,1004.50
2018-08-27T07:18:02.242Z,1004.51
2018-08-27T07:19:02.204Z,1004.47
2018-08-27T07:20:02.169Z,1004.51
2018-08-27T07:21:02.159Z,1004.48
2018-08-27T07:22:02.085Z,1004.44
2018-08-27T07:23:02.048Z,1004.44
2018-08-27T07:24:02.011Z,1004.49
2018-08-27T07:25:01.970Z,1004.50
2018-08-27T07:26:01.937Z,1004.48
2018-08-27T07:27:01.907Z,1004.48
2018-08-27T07:28:01.846Z,1004.50
2018-08-27T07:29:01.804Z,1004.54
2018-08-27T07:30:01.776Z,1004.48
2018-08-27T07:31:01.738Z,1004.54
2018-08-27T07:32:10.362Z,1004.52
2018-08-27T07:33:01.657Z,1004.57
2018-08-27T07:34:01.621Z,1004.58
2018-08-27T07:35:01.584Z,1004.58
2018-08-27T07:36:01.551Z,1004.61
2018-08-27T07:37:01.538Z,1004.65
2018-08-27T07:38:01.458Z,1004.63
2018-08-27T07:39:01.425Z,1004.61
2018-08-27T07:40:01.400Z,1004.64
2018-08-27T07:41:01.355Z,1004.65
2018-08-27T07:42:01.316Z,1004.66
2018-08-27T07:43:01.333Z,1004.69
2018-08-27T07:44:01.223Z,1004.72
2018-08-27T07:45:01.202Z,1004.73
2018-08-27T07:46:01.149Z,1004.74
2018-08-27T07:47:01.110Z,1004.74
2018-08-27T07:48:01.106Z,1004.74
2018-08-27T07:49:01.064Z,1004.76
2018-08-27T07:50:00.991Z,1004.73
2018-08-27T07:51:00.961Z,1004.74
2018-08-27T07:52:00.946Z,1004.77
2018-08-27T07:53:00.907Z,1004.73
2018-08-27T07:54:00.843Z,1004.74
2018-08-27T07:55:00.806Z,1004.72
2018-08-27T07:56:00.761Z,1004.71
2018-08-27T07:57:00.726Z,1004.74
2018-08-27T07:58:00.710Z,1004.77
2018-08-27T07:59:00.649Z,1004.75
2018-08-27T08:00:00.625Z,1004.74
2018-08-27T08:01:00.575Z,1004.77
2018-08-27T08:02:00.537Z,1004.78
2018-08-27T08:03:00.524Z,1004.82
2018-08-27T08:04:00.460Z,1004.82
2018-08-27T08:05:00.412Z,1004.80
2018-08-27T08:06:00.391Z,1004.76
2018-08-27T08:07:00.350Z,1004.79
2018-08-27T08:08:00.329Z,1004.80
2018-08-27T08:09:00.264Z,1004.78
2018-08-27T08:10:00.227Z,1004.78
2018-08-27T08:11:11.400Z,1004.86
2018-08-27T08:12:00.158Z,1004.87
2018-08-27T08:13:00.143Z,1004.86
2018-08-27T08:14:00.076Z,1004.94
2018-08-27T08:15:00.034Z,1004.94
2018-08-27T08:16:00.000Z,1004.95
2018-08-27T08:16:59.961Z,1004.91
2018-08-27T08:17:59.955Z,1004.94
2018-08-27T08:18:59.900Z,1004.99
2018-08-27T08:19:59.858Z,1005.02
2018-08-27T08:20:59.807Z,1005.00
2018-08-27T08:21:59.775Z,1005.04
2018-08-27T08:22:59.759Z,1005.03
2018-08-27T08:23:59.699Z,1005.04
2018-08-27T08:24:59.663Z,1005.04
2018-08-27T08:25:59.617Z,1005.04
2018-08-27T08:26:59.592Z,1005.06
2018-08-27T08:27:59.565Z,1005.07
2018-08-27T08:28:59.503Z,1005.04
2018-08-27T08:30:10.960Z,1005.07
2018-08-27T08:30:59.433Z,1005.02
2018-08-27T08:31:59.397Z,1005.04
2018-08-27T08:32:59.353Z,1005.08
2018-08-27T08:33:59.347Z,1005.15
2018-08-27T08:34:59.283Z,1005.11
2018-08-27T08:35:59.279Z,1005.14
2018-08-27T08:36:59.206Z,1005.17
2018-08-27T08:37:59.173Z,1005.20
2018-08-27T08:38:59.168Z,1005.19
2018-08-27T08:39:59.158Z,1005.19
2018-08-27T08:40:59.059Z,1005.21
2018-08-27T08:41:59.021Z,1005.21
2018-08-27T08:42:58.981Z,1005.18
2018-08-27T08:43:58.959Z,1005.20
2018-08-27T08:44:58.896Z,1005.22
2018-08-27T08:45:58.865Z,1005.28
2018-08-27T08:46:58.827Z,1005.25
2018-08-27T08:48:08.990Z,1005.25
2018-08-27T08:48:58.781Z,1005.25
2018-08-27T08:49:58.758Z,1005.27
2018-08-27T08:50:58.764Z,1005.24
2018-08-27T08:51:58.656Z,1005.26
2018-08-27T08:52:58.609Z,1005.25
2018-08-27T08:53:58.561Z,1005.27
2018-08-27T08:54:58.553Z,1005.37
2018-08-27T08:55:58.488Z,1005.35
2018-08-27T08:56:58.454Z,1005.37
2018-08-27T08:57:58.423Z,1005.37
2018-08-27T08:58:58.395Z,1005.43
2018-08-27T08:59:58.381Z,1005.41
2018-08-27T09:00:58.323Z,1005.48
2018-08-27T09:01:58.269Z,1005.47
2018-08-27T09:02:58.234Z,1005.49
2018-08-27T09:03:58.214Z,1005.50
2018-08-27T09:05:08.043Z,1005.42
2018-08-27T09:05:58.128Z,1005.48
2018-08-27T09:06:58.098Z,1005.47
2018-08-27T09:07:58.070Z,1005.49
2018-08-27T09:08:58.090Z,1005.44
2018-08-27T09:09:58.013Z,1005.41
2018-08-27T09:10:57.950Z,1005.44
2018-08-27T09:11:57.914Z,1005.47
2018-08-27T09:12:57.925Z,1005.47
2018-08-27T09:13:57.848Z,1005.51
2018-08-27T09:14:57.803Z,1005.57
2018-08-27T09:15:57.793Z,1005.60
2018-08-27T09:16:57.748Z,1005.51
2018-08-27T09:17:57.698Z,1005.48
2018-08-27T09:18:57.663Z,1005.48
2018-08-27T09:19:57.631Z,1005.47
2018-08-27T09:20:57.619Z,1005.46
2018-08-27T09:21:57.559Z,1005.44
2018-08-27T09:22:57.525Z,1005.38
2018-08-27T09:24:07.562Z,1005.41
2018-08-27T09:24:57.448Z,1005.42
2018-08-27T09:25:57.441Z,1005.36
2018-08-27T09:26:57.388Z,1005.34
2018-08-27T09:27:57.353Z,1005.41
2018-08-27T09:28:57.313Z,1005.40
2018-08-27T09:29:57.283Z,1005.39
2018-08-27T09:30:57.266Z,1005.38
2018-08-27T09:31:57.209Z,1005.44
2018-08-27T09:32:57.183Z,1005.38
2018-08-27T09:33:57.137Z,1005.62
2018-08-27T09:34:57.107Z,1005.74
2018-08-27T09:35:57.085Z,1005.64
2018-08-27T09:36:57.078Z,1005.58
2018-08-27T09:37:57.006Z,1005.58
2018-08-27T09:38:56.981Z,1005.53
2018-08-27T09:39:56.929Z,1005.66
2018-08-27T09:40:56.899Z,1005.74
2018-08-27T09:41:56.881Z,1005.69
2018-08-27T09:42:56.819Z,1005.54
2018-08-27T09:44:07.116Z,1005.52
2018-08-27T09:44:56.817Z,1005.50
2018-08-27T09:45:56.777Z,1005.48
2018-08-27T09:46:56.812Z,1005.55
2018-08-27T09:47:56.766Z,1005.62
2018-08-27T09:48:56.629Z,1005.58
2018-08-27T09:49:56.590Z,1005.50
2018-08-27T09:50:56.549Z,1005.46
2018-08-27T09:51:56.535Z,1005.47
2018-08-27T09:52:56.545Z,1005.49
2018-08-27T09:53:56.442Z,1005.53
2018-08-27T09:54:56.407Z,1005.56
2018-08-27T09:55:56.381Z,1005.64
2018-08-27T09:56:56.365Z,1005.63
2018-08-27T09:57:56.308Z,1005.62
2018-08-27T09:58:56.353Z,1005.57
2018-08-27T09:59:56.238Z,1005.64
2018-08-27T10:00:56.199Z,1005.62
2018-08-27T10:01:56.208Z,1005.62
2018-08-27T10:02:56.139Z,1005.66
2018-08-27T10:04:06.658Z,1005.82
2018-08-27T10:04:56.064Z,1006.04
2018-08-27T10:05:56.035Z,1005.75
2018-08-27T10:06:56.007Z,1005.75
2018-08-27T10:07:55.989Z,1005.74
2018-08-27T10:08:55.999Z,1005.68
2018-08-27T10:09:55.900Z,1005.86
2018-08-27T10:10:55.859Z,1005.77
2018-08-27T10:11:55.832Z,1005.83
2018-08-27T10:12:55.812Z,1005.75
2018-08-27T10:13:55.790Z,1005.76
2018-08-27T10:14:55.790Z,1005.88
2018-08-27T10:15:55.694Z,1005.84
2018-08-27T10:16:55.657Z,1005.89
2018-08-27T10:17:55.655Z,1005.76
2018-08-27T10:18:55.603Z,1005.70
2018-08-27T10:19:55.569Z,1005.67
2018-08-27T10:20:55.532Z,1005.68
2018-08-27T10:21:55.501Z,1005.63
2018-08-27T10:22:55.488Z,1005.59
2018-08-27T10:23:55.430Z,1005.55
2018-08-27T10:25:06.691Z,1005.50
2018-08-27T10:25:55.373Z,1005.51
2018-08-27T10:26:55.334Z,1005.51
2018-08-27T10:27:55.299Z,1005.56
2018-08-27T10:28:55.285Z,1005.56
2018-08-27T10:29:55.324Z,1005.59
2018-08-27T10:30:55.200Z,1005.56
2018-08-27T10:31:55.159Z,1005.53
2018-08-27T10:32:55.127Z,1005.57
2018-08-27T10:33:55.138Z,1005.46
2018-08-27T10:34:55.058Z,1005.55
2018-08-27T10:35:55.032Z,1005.54
2018-08-27T10:36:54.993Z,1005.50
2018-08-27T10:37:55.009Z,1005.40
2018-08-27T10:38:54.952Z,1005.41
2018-08-27T10:39:54.886Z,1005.42
2018-08-27T10:40:54.855Z,1005.36
2018-08-27T10:41:54.818Z,1005.39
2018-08-27T10:42:54.867Z,1005.32
2018-08-27T10:43:54.782Z,1005.44
2018-08-27T10:45:05.221Z,1005.51
2018-08-27T10:45:54.688Z,1005.57
2018-08-27T10:46:54.654Z,1005.51
2018-08-27T10:47:54.620Z,1005.68
2018-08-27T10:48:54.604Z,1005.75
2018-08-27T10:49:54.545Z,1005.86
2018-08-27T10:50:54.505Z,1005.79
2018-08-27T10:51:54.481Z,1005.81
2018-08-27T10:52:54.439Z,1005.83
2018-08-27T10:53:54.423Z,1005.87
2018-08-27T10:54:54.366Z,1005.83
2018-08-27T10:55:54.326Z,1005.86
2018-08-27T10:56:54.293Z,1005.96
2018-08-27T10:57:54.276Z,1005.92
2018-08-27T10:58:54.229Z,1005.97
2018-08-27T10:59:54.207Z,1006.04
2018-08-27T11:00:54.162Z,1006.10
2018-08-27T11:01:54.120Z,1006.14
2018-08-27T11:02:54.088Z,1006.16
2018-08-27T11:03:54.047Z,1006.16
2018-08-27T11:05:03.821Z,1006.13
2018-08-27T11:05:53.974Z,1006.27
2018-08-27T11:06:53.958Z,1006.32
2018-08-27T11:07:53.906Z,1006.31
2018-08-27T11:08:53.981Z,1006.37
2018-08-27T11:09:53.860Z,1006.38
2018-08-27T11:10:53.798Z,1006.39
2018-08-27T11:11:53.755Z,1006.72
2018-08-27T11:12:53.721Z,1006.54
2018-08-27T11:13:53.693Z,1006.70
2018-08-27T11:14:53.687Z,1006.78
2018-08-27T11:15:53.619Z,1006.62
2018-08-27T11:16:53.598Z,1006.53
2018-08-27T11:17:53.548Z,1006.61
2018-08-27T11:18:53.519Z,1006.51
2018-08-27T11:19:53.573Z,1006.47
2018-08-27T11:20:53.472Z,1006.45
2018-08-27T11:21:53.415Z,1006.65
2018-08-27T11:22:53.378Z,1006.73
2018-08-27T11:24:03.807Z,1006.66
2018-08-27T11:24:53.307Z,1006.59
2018-08-27T11:25:53.311Z,1006.78
2018-08-27T11:26:53.251Z,1006.58
2018-08-27T11:27:53.211Z,1006.84
2018-08-27T11:28:53.175Z,1006.82
2018-08-27T11:29:53.147Z,1006.88
2018-08-27T11:30:53.143Z,1006.58
2018-08-27T11:31:53.084Z,1006.48
2018-08-27T11:32:53.109Z,1006.58
2018-08-27T11:33:53.013Z,1006.55
2018-08-27T11:34:52.978Z,1006.66
2018-08-27T11:35:52.949Z,1006.52
2018-08-27T11:36:52.935Z,1006.67
2018-08-27T11:37:52.898Z,1006.58
2018-08-27T11:38:52.862Z,1006.70
2018-08-27T11:39:52.829Z,1006.58
2018-08-27T11:40:52.792Z,1006.67
2018-08-27T11:41:52.782Z,1006.66
2018-08-27T11:42:52.723Z,1006.51
2018-08-27T11:44:02.859Z,1006.55
2018-08-27T11:44:52.664Z,1006.46
2018-08-27T11:45:52.627Z,1006.52
2018-08-27T11:46:52.619Z,1006.49
2018-08-27T11:47:52.571Z,1006.47
2018-08-27T11:48:52.541Z,1006.46
2018-08-27T11:49:52.508Z,1006.53
2018-08-27T11:50:52.651Z,1006.51
2018-08-27T11:51:52.436Z,1006.49
2018-08-27T11:52:52.423Z,1006.62
2018-08-27T11:53:52.373Z,1006.60
2018-08-27T11:54:52.348Z,1006.58
2018-08-27T11:55:52.324Z,1006.95
2018-08-27T11:56:52.278Z,1006.68
2018-08-27T11:57:52.262Z,1006.54
2018-08-27T11:58:52.208Z,1006.63
2018-08-27T11:59:52.183Z,1006.67
2018-08-27T12:00:52.155Z,1006.75
2018-08-27T12:01:52.116Z,1006.76
2018-08-27T12:02:52.111Z,1006.85
2018-08-27T12:04:03.400Z,1006.95
2018-08-27T12:04:52.012Z,1007.03